메인 페이지
METAR-TAF:

METAR-TAF

공항 :

카라카스, 베네수엘라

시몬 볼리바르 국제공항

위도: 10-36N, 경도: 066-59W, 고도: 43m

현재 날씨관측

예보는 54분 전, 18:00시(UTC)에 발표되었습니다.
북동5kt
온도 30°C
습도 66%
기압 1011 hPa
시정 10km 이상
고도 1600ft 상공 구름 보통

METAR: SVMI 161800Z 05005KT 9999 SCT016 30/23 Q1011

시각: 14:54 (18:54 UTC)

예보

예보는 2 시간 54분 전, 16:00시(UTC)에 발표되었습니다.
예보 대상 시간: 16일 18시부터 17일 18시까지 (UTC)
북동7kt
시정 10km 이상
고도 1600ft 상공 구름 조금
일시적
16일 18시부터 16일 22시까지 (UTC)
고도 1600ft 상공 구름 보통
고도 10000ft 상공 구름 보통
16일 2300시부터 (UTC)
북동3kt
시정 10km 이상
고도 1600ft 상공 구름 조금
고도 10000ft 상공 구름 보통
일시적
16일 04시부터 16일 08시까지 (UTC)
kt
시정 10km 이상
1500m 미만 상공 구름 및 적란운 없음

TAF: SVMI 161600Z 1618/1718 05007KT 9999 FEW016 TX30/18Z TN23/09Z TEMPO 1618/1622 SCT016 SCT100 FM162300 05003KT 9999 FEW016 SCT100 TEMPO 1604/1608 00000KT CAVOK

4,000개 이상의 공항 관측 자료 및 예보 (METAR 및 TAF 보고).

지도상에서 검색 가능한 기상관측소가 노란 점과 빨간 점으로 표시되어 있습니다.

기상관측소 명을 보려면 표시 위로 마우스를 이동하세요.

날씨 관측과 예보를 보려면 클릭하세요.

지도 변경 : 확대하려면 엑스 표시가 있는 녹색 버튼, 축소하려면 빼기 표시가 있는 녹색 버튼, 다음 페이지의 지도를 보려면 녹색 화살표를 클릭하세요.


METAR-TAF: